PRIVATE WETTERSTATION BILLIGHEIM-ALLFELD                       ZURCK
Wetterdaten: Donnerstag, 06.02.2014
Datum Zeit Temp. A. Temp. A. min Temp. A. max Feuchte A. Luftdruck Regen Wind Richtung Richtung Sonnenschein ET Solar Taupunkt Windchill Windben Empfang
06.02.2014 00:00 1,8 C 1,7 C 1,8 C 89 % 1005,9 hPa 0,2 l/m 6,4 km/h (2 Bft) S-SO 157 0 min 0,000 mm 0 W/m 0,2 C 1,8 C 11,3 km/h (2 Bft) 97 %
06.02.2014 00:10 1,8 C 1,8 C 1,9 C 89 % 1006,2 hPa 0,0 l/m 6,4 km/h (2 Bft) S 180 0 min 0,000 mm 0 W/m 0,2 C 1,8 C 12,9 km/h (3 Bft) 97 %
06.02.2014 00:20 1,9 C 1,8 C 1,9 C 89 % 1006,2 hPa 0,0 l/m 6,4 km/h (2 Bft) S 180 0 min 0,000 mm 0 W/m 0,3 C 1,9 C 16,1 km/h (3 Bft) 97 %
06.02.2014 00:30 1,9 C 1,8 C 1,9 C 89 % 1006,3 hPa 0,0 l/m 6,4 km/h (2 Bft) S 180 0 min 0,000 mm 0 W/m 0,3 C 1,9 C 12,9 km/h (3 Bft) 98 %
06.02.2014 00:40 2,1 C 1,9 C 2,2 C 89 % 1006,3 hPa 0,0 l/m 6,4 km/h (2 Bft) S 180 0 min 0,000 mm 0 W/m 0,5 C 2,1 C 14,5 km/h (3 Bft) 97 %
06.02.2014 00:50 2,3 C 2,1 C 2,3 C 89 % 1006,3 hPa 0,0 l/m 8,0 km/h (2 Bft) S 180 0 min 0,000 mm 0 W/m 0,7 C 0,8 C 17,7 km/h (3 Bft) 98 %
06.02.2014 01:00 2,4 C 2,3 C 2,4 C 89 % 1006,2 hPa 0,0 l/m 9,7 km/h (2 Bft) S 180 0 min 0,000 mm 0 W/m 0,8 C -0,6 C 19,3 km/h (3 Bft) 98 %
06.02.2014 01:10 2,6 C 2,4 C 2,6 C 89 % 1006,2 hPa 0,0 l/m 9,7 km/h (2 Bft) S-SO 157 0 min 0,000 mm 0 W/m 1,0 C -0,3 C 19,3 km/h (3 Bft) 97 %
06.02.2014 01:20 2,6 C 2,6 C 2,6 C 89 % 1006,3 hPa 0,0 l/m 8,0 km/h (2 Bft) S 180 0 min 0,000 mm 0 W/m 1,0 C 1,1 C 17,7 km/h (3 Bft) 98 %
06.02.2014 01:30 2,4 C 2,4 C 2,6 C 89 % 1006,3 hPa 0,0 l/m 8,0 km/h (2 Bft) S 180 0 min 0,000 mm 0 W/m 0,8 C 0,9 C 16,1 km/h (3 Bft) 97 %
06.02.2014 01:40 2,3 C 2,3 C 2,4 C 89 % 1006,6 hPa 0,0 l/m 8,0 km/h (2 Bft) S-SW 202 0 min 0,000 mm 0 W/m 0,7 C 0,8 C 14,5 km/h (3 Bft) 98 %
06.02.2014 01:50 2,6 C 2,3 C 2,6 C 89 % 1006,8 hPa 0,0 l/m 8,0 km/h (2 Bft) S-SW 202 0 min 0,000 mm 0 W/m 1,0 C 1,1 C 12,9 km/h (3 Bft) 97 %
06.02.2014 02:00 2,7 C 2,6 C 2,7 C 89 % 1007,0 hPa 0,0 l/m 4,8 km/h (1 Bft) S-SW 202 0 min 0,000 mm 0 W/m 1,1 C 2,7 C 9,7 km/h (2 Bft) 98 %
06.02.2014 02:10 2,7 C 2,7 C 2,7 C 89 % 1007,2 hPa 0,0 l/m 3,2 km/h (1 Bft) S 180 0 min 0,000 mm 0 W/m 1,1 C 2,7 C 6,4 km/h (2 Bft) 90 %
06.02.2014 02:20 2,8 C 2,7 C 2,8 C 89 % 1007,2 hPa 0,2 l/m 1,6 km/h (1 Bft) SO 135 0 min 0,000 mm 0 W/m 1,2 C 2,8 C 6,4 km/h (2 Bft) 97 %
06.02.2014 02:30 2,8 C 2,8 C 2,8 C 89 % 1007,1 hPa 0,0 l/m 4,8 km/h (1 Bft) SO 135 0 min 0,000 mm 0 W/m 1,2 C 2,8 C 11,3 km/h (2 Bft) 97 %
06.02.2014 02:40 3,0 C 2,8 C 3,0 C 89 % 1007,1 hPa 0,0 l/m 4,8 km/h (1 Bft) SO 135 0 min 0,000 mm 0 W/m 1,4 C 3,0 C 9,7 km/h (2 Bft) 97 %
06.02.2014 02:50 3,2 C 3,1 C 3,2 C 89 % 1007,2 hPa 0,0 l/m 1,6 km/h (1 Bft) S-SO 157 0 min 0,000 mm 0 W/m 1,6 C 3,2 C 6,4 km/h (2 Bft) 97 %
06.02.2014 03:00 2,9 C 2,9 C 3,2 C 89 % 1007,2 hPa 0,0 l/m 3,2 km/h (1 Bft) S-SO 157 0 min 0,000 mm 0 W/m 1,3 C 2,9 C 9,7 km/h (2 Bft) 97 %
06.02.2014 03:10 2,8 C 2,8 C 2,9 C 89 % 1007,3 hPa 0,0 l/m 3,2 km/h (1 Bft) S 180 0 min 0,000 mm 0 W/m 1,2 C 2,8 C 8,0 km/h (2 Bft) 97 %
06.02.2014 03:20 2,7 C 2,7 C 2,8 C 89 % 1007,5 hPa 0,0 l/m 1,6 km/h (1 Bft) S 180 0 min 0,000 mm 0 W/m 1,1 C 2,7 C 8,0 km/h (2 Bft) 98 %
06.02.2014 03:30 2,6 C 2,6 C 2,7 C 89 % 1007,6 hPa 0,0 l/m 3,2 km/h (1 Bft) S 180 0 min 0,000 mm 0 W/m 1,0 C 2,6 C 11,3 km/h (2 Bft) 97 %
06.02.2014 03:40 2,7 C 2,6 C 2,8 C 89 % 1007,6 hPa 0,0 l/m 6,4 km/h (2 Bft) S-SO 157 0 min 0,000 mm 0 W/m 1,1 C 2,7 C 11,3 km/h (2 Bft) 98 %
06.02.2014 03:50 2,9 C 2,8 C 2,9 C 89 % 1007,7 hPa 0,0 l/m 6,4 km/h (2 Bft) S-SO 157 0 min 0,000 mm 0 W/m 1,3 C 2,9 C 14,5 km/h (3 Bft) 91 %
06.02.2014 04:00 3,1 C 2,9 C 3,1 C 88 % 1007,7 hPa 0,0 l/m 6,4 km/h (2 Bft) S-SO 157 0 min 0,000 mm 0 W/m 1,3 C 3,1 C 11,3 km/h (2 Bft) 96 %
06.02.2014 04:10 3,2 C 3,1 C 3,2 C 88 % 1007,7 hPa 0,0 l/m 6,4 km/h (2 Bft) S-SO 157 0 min 0,000 mm 0 W/m 1,4 C 3,2 C 14,5 km/h (3 Bft) 97 %
06.02.2014 04:20 3,2 C 3,2 C 3,3 C 88 % 1007,7 hPa 0,0 l/m 6,4 km/h (2 Bft) S 180 0 min 0,000 mm 0 W/m 1,4 C 3,2 C 14,5 km/h (3 Bft) 98 %
06.02.2014 04:30 3,2 C 3,2 C 3,3 C 88 % 1007,9 hPa 0,0 l/m 6,4 km/h (2 Bft) S 180 0 min 0,000 mm 0 W/m 1,4 C 3,2 C 12,9 km/h (3 Bft) 98 %
06.02.2014 04:40 3,1 C 3,1 C 3,2 C 88 % 1008,0 hPa 0,0 l/m 6,4 km/h (2 Bft) S 180 0 min 0,000 mm 0 W/m 1,3 C 3,1 C 11,3 km/h (2 Bft) 99 %
06.02.2014 04:50 3,1 C 3,1 C 3,1 C 89 % 1008,2 hPa 0,0 l/m 4,8 km/h (1 Bft) S-SW 202 0 min 0,000 mm 0 W/m 1,5 C 3,1 C 9,7 km/h (2 Bft) 100 %
06.02.2014 05:00 3,0 C 3,0 C 3,1 C 89 % 1008,2 hPa 0,0 l/m 3,2 km/h (1 Bft) S 180 0 min 0,000 mm 0 W/m 1,4 C 3,0 C 14,5 km/h (3 Bft) 99 %
06.02.2014 05:10 3,1 C 3,0 C 3,1 C 89 % 1008,3 hPa 0,0 l/m 3,2 km/h (1 Bft) S 180 0 min 0,000 mm 0 W/m 1,5 C 3,1 C 8,0 km/h (2 Bft) 100 %
06.02.2014 05:20 3,4 C 3,1 C 3,4 C 88 % 1008,4 hPa 0,0 l/m 4,8 km/h (1 Bft) S-SO 157 0 min 0,000 mm 0 W/m 1,6 C 3,4 C 14,5 km/h (3 Bft) 99 %
06.02.2014 05:30 3,5 C 3,4 C 3,5 C 88 % 1008,5 hPa 0,0 l/m 4,8 km/h (1 Bft) S-SO 157 0 min 0,000 mm 0 W/m 1,7 C 3,5 C 11,3 km/h (2 Bft) 99 %
06.02.2014 05:40 3,5 C 3,5 C 3,6 C 88 % 1008,8 hPa 0,0 l/m 6,4 km/h (2 Bft) S 180 0 min 0,000 mm 0 W/m 1,7 C 3,5 C 12,9 km/h (3 Bft) 99 %
06.02.2014 05:50 3,6 C 3,5 C 3,6 C 88 % 1008,9 hPa 0,0 l/m 4,8 km/h (1 Bft) S 180 0 min 0,000 mm 0 W/m 1,8 C 3,6 C 11,3 km/h (2 Bft) 100 %
06.02.2014 06:00 3,6 C 3,5 C 3,6 C 88 % 1008,9 hPa 0,0 l/m 4,8 km/h (1 Bft) S 180 0 min 0,000 mm 0 W/m 1,8 C 3,6 C 11,3 km/h (2 Bft) 100 %
06.02.2014 06:10 3,7 C 3,6 C 3,7 C 88 % 1008,9 hPa 0,0 l/m 4,8 km/h (1 Bft) S 180 0 min 0,000 mm 0 W/m 1,9 C 3,7 C 11,3 km/h (2 Bft) 99 %
06.02.2014 06:20 3,7 C 3,7 C 3,8 C 87 % 1009,0 hPa 0,0 l/m 4,8 km/h (1 Bft) S 180 0 min 0,000 mm 0 W/m 1,7 C 3,7 C 9,7 km/h (2 Bft) 100 %
06.02.2014 06:30 3,7 C 3,7 C 3,8 C 88 % 1009,1 hPa 0,0 l/m 3,2 km/h (1 Bft) S 180 0 min 0,000 mm 0 W/m 1,9 C 3,7 C 11,3 km/h (2 Bft) 100 %
06.02.2014 06:40 3,7 C 3,7 C 3,7 C 88 % 1009,3 hPa 0,0 l/m 4,8 km/h (1 Bft) S-SO 157 0 min 0,000 mm 0 W/m 1,9 C 3,7 C 9,7 km/h (2 Bft) 100 %
06.02.2014 06:50 3,7 C 3,6 C 3,7 C 89 % 1009,3 hPa 0,2 l/m 4,8 km/h (1 Bft) S-SO 157 0 min 0,000 mm 0 W/m 2,1 C 3,7 C 11,3 km/h (2 Bft) 99 %
06.02.2014 07:00 3,8 C 3,7 C 3,8 C 89 % 1009,1 hPa 0,0 l/m 4,8 km/h (1 Bft) S-SO 157 0 min 0,000 mm 0 W/m 2,2 C 3,8 C 9,7 km/h (2 Bft) 100 %
06.02.2014 07:10 3,8 C 3,8 C 3,8 C 89 % 1009,5 hPa 0,4 l/m 1,6 km/h (1 Bft) S 180 0 min 0,000 mm 0 W/m 2,2 C 3,8 C 8,0 km/h (2 Bft) 100 %
06.02.2014 07:20 3,6 C 3,6 C 3,8 C 89 % 1009,4 hPa 0,4 l/m 6,4 km/h (2 Bft) S-SO 157 0 min 0,000 mm 0 W/m 2,0 C 3,6 C 14,5 km/h (3 Bft) 100 %
06.02.2014 07:30 3,6 C 3,6 C 3,6 C 89 % 1009,6 hPa 0,0 l/m 4,8 km/h (1 Bft) S-SO 157 0 min 0,000 mm 0 W/m 2,0 C 3,6 C 9,7 km/h (2 Bft) 100 %
06.02.2014 07:40 3,5 C 3,5 C 3,6 C 89 % 1009,6 hPa 0,0 l/m 3,2 km/h (1 Bft) S 180 0 min 0,000 mm 0 W/m 1,9 C 3,5 C 11,3 km/h (2 Bft) 100 %
06.02.2014 07:50 3,4 C 3,4 C 3,5 C 89 % 1009,8 hPa 0,0 l/m 0,0 km/h (0 Bft) S 180 0 min 0,000 mm 0 W/m 1,8 C 3,4 C 3,2 km/h (1 Bft) 100 %
06.02.2014 08:00 3,3 C 3,3 C 3,4 C 89 % 1009,8 hPa 0,0 l/m 3,2 km/h (1 Bft) S 180 0 min 0,000 mm 0 W/m 1,7 C 3,3 C 6,4 km/h (2 Bft) 100 %
06.02.2014 08:10 3,3 C 3,2 C 3,3 C 89 % 1009,8 hPa 0,0 l/m 1,6 km/h (1 Bft) SO 135 0 min 0,000 mm 12 W/m 1,7 C 3,3 C 8,0 km/h (2 Bft) 100 %
06.02.2014 08:20 3,3 C 3,3 C 3,3 C 89 % 1009,8 hPa 0,0 l/m 1,6 km/h (1 Bft) S-SW 202 0 min 0,000 mm 18 W/m 1,7 C 3,3 C 8,0 km/h (2 Bft) 100 %
06.02.2014 08:30 3,4 C 3,3 C 3,4 C 89 % 1010,0 hPa 0,0 l/m 0,0 km/h (0 Bft) S 180 0 min 0,000 mm 16 W/m 1,8 C 3,4 C 1,6 km/h (1 Bft) 100 %
06.02.2014 08:40 3,4 C 3,3 C 3,4 C 89 % 1009,9 hPa 0,0 l/m 1,6 km/h (1 Bft) S 180 0 min 0,000 mm 33 W/m 1,8 C 3,4 C 4,8 km/h (1 Bft) 100 %
06.02.2014 08:50 3,4 C 3,4 C 3,4 C 89 % 1009,9 hPa 0,0 l/m 3,2 km/h (1 Bft) S-SO 157 0 min 0,000 mm 33 W/m 1,8 C 3,4 C 8,0 km/h (2 Bft) 100 %
06.02.2014 09:00 3,6 C 3,4 C 3,6 C 89 % 1009,9 hPa 0,0 l/m 4,8 km/h (1 Bft) S-SO 157 0 min 0,000 mm 47 W/m 2,0 C 3,6 C 9,7 km/h (2 Bft) 100 %
06.02.2014 09:10 3,8 C 3,6 C 3,8 C 89 % 1009,9 hPa 0,0 l/m 4,8 km/h (1 Bft) S-SO 157 0 min 0,000 mm 62 W/m 2,2 C 3,8 C 11,3 km/h (2 Bft) 100 %
06.02.2014 09:20 4,1 C 3,8 C 4,1 C 89 % 1010,0 hPa 0,0 l/m 4,8 km/h (1 Bft) S 180 0 min 0,000 mm 91 W/m 2,5 C 4,1 C 14,5 km/h (3 Bft) 100 %
06.02.2014 09:30 4,3 C 4,1 C 4,3 C 89 % 1009,9 hPa 0,0 l/m 4,8 km/h (1 Bft) S 180 0 min 0,000 mm 81 W/m 2,7 C 4,3 C 11,3 km/h (2 Bft) 100 %
06.02.2014 09:40 4,4 C 4,3 C 4,4 C 89 % 1010,0 hPa 0,0 l/m 4,8 km/h (1 Bft) S 180 0 min 0,000 mm 83 W/m 2,7 C 4,4 C 12,9 km/h (3 Bft) 100 %
06.02.2014 09:50 4,6 C 4,4 C 4,6 C 89 % 1010,0 hPa 0,0 l/m 6,4 km/h (2 Bft) S 180 0 min 0,000 mm 109 W/m 2,9 C 4,6 C 16,1 km/h (3 Bft) 100 %
06.02.2014 10:00 4,8 C 4,6 C 4,8 C 89 % 1010,2 hPa 0,0 l/m 6,4 km/h (2 Bft) S 180 0 min 0,025 mm 142 W/m 3,1 C 4,8 C 16,1 km/h (3 Bft) 100 %
06.02.2014 10:10 5,2 C 4,8 C 5,2 C 88 % 1010,1 hPa 0,0 l/m 8,0 km/h (2 Bft) S 180 10 min 0,000 mm 290 W/m 3,4 C 3,8 C 19,3 km/h (3 Bft) 100 %
06.02.2014 10:20 5,7 C 5,2 C 5,7 C 87 % 1010,0 hPa 0,0 l/m 8,0 km/h (2 Bft) S-SW 202 10 min 0,000 mm 378 W/m 3,7 C 4,3 C 19,3 km/h (3 Bft) 100 %
06.02.2014 10:30 6,2 C 5,7 C 6,2 C 86 % 1010,0 hPa 0,0 l/m 8,0 km/h (2 Bft) S 180 10 min 0,000 mm 406 W/m 4,0 C 4,9 C 20,9 km/h (4 Bft) 100 %
06.02.2014 10:40 6,6 C 6,2 C 6,6 C 87 % 1010,1 hPa 0,0 l/m 8,0 km/h (2 Bft) S-SW 202 10 min 0,000 mm 427 W/m 4,6 C 5,3 C 17,7 km/h (3 Bft) 100 %
06.02.2014 10:50 6,7 C 6,6 C 6,7 C 82 % 1010,1 hPa 0,0 l/m 9,7 km/h (2 Bft) S-SW 202 10 min 0,000 mm 288 W/m 3,8 C 4,2 C 19,3 km/h (3 Bft) 100 %
06.02.2014 11:00 6,8 C 6,7 C 6,8 C 81 % 1010,1 hPa 0,0 l/m 8,0 km/h (2 Bft) S-SO 157 10 min 0,102 mm 246 W/m 3,8 C 5,5 C 20,9 km/h (4 Bft) 100 %
06.02.2014 11:10 6,8 C 6,8 C 6,9 C 81 % 1010,2 hPa 0,0 l/m 6,4 km/h (2 Bft) S-SW 202 10 min 0,000 mm 179 W/m 3,8 C 6,8 C 19,3 km/h (3 Bft) 100 %
06.02.2014 11:20 6,9 C 6,8 C 6,9 C 79 % 1010,1 hPa 0,0 l/m 8,0 km/h (2 Bft) S-SO 157 10 min 0,000 mm 250 W/m 3,5 C 5,6 C 16,1 km/h (3 Bft) 100 %
06.02.2014 11:30 7,4 C 6,9 C 7,4 C 79 % 1010,1 hPa 0,0 l/m 9,7 km/h (2 Bft) S-SW 202 10 min 0,000 mm 487 W/m 4,0 C 4,9 C 20,9 km/h (4 Bft) 100 %
06.02.2014 11:40 8,1 C 7,4 C 8,1 C 77 % 1010,0 hPa 0,0 l/m 9,7 km/h (2 Bft) S-SW 202 10 min 0,000 mm 508 W/m 4,3 C 5,7 C 19,3 km/h (3 Bft) 100 %
06.02.2014 11:50 8,2 C 8,1 C 8,2 C 75 % 1010,0 hPa 0,0 l/m 11,3 km/h (2 Bft) S-SW 202 10 min 0,000 mm 454 W/m 4,0 C 4,8 C 22,5 km/h (4 Bft) 100 %
06.02.2014 12:00 8,3 C 8,2 C 8,3 C 73 % 1009,9 hPa 0,0 l/m 11,3 km/h (2 Bft) S-SW 202 10 min 0,152 mm 497 W/m 3,8 C 4,9 C 20,9 km/h (4 Bft) 100 %
06.02.2014 12:10 8,3 C 8,2 C 8,4 C 74 % 1009,8 hPa 0,0 l/m 12,9 km/h (3 Bft) S-SW 202 10 min 0,000 mm 494 W/m 3,9 C 4,1 C 25,7 km/h (4 Bft) 100 %
06.02.2014 12:20 8,4 C 8,3 C 8,5 C 73 % 1009,6 hPa 0,0 l/m 9,7 km/h (2 Bft) S-SW 202 10 min 0,000 mm 216 W/m 3,8 C 6,0 C 17,7 km/h (3 Bft) 100 %
06.02.2014 12:30 8,1 C 8,1 C 8,4 C 72 % 1009,3 hPa 0,0 l/m 11,3 km/h (2 Bft) S-SW 202 10 min 0,000 mm 172 W/m 3,4 C 4,7 C 20,9 km/h (4 Bft) 100 %
06.02.2014 12:40 8,2 C 8,1 C 8,3 C 72 % 1009,2 hPa 0,0 l/m 6,4 km/h (2 Bft) S-SW 202 10 min 0,000 mm 239 W/m 3,5 C 8,2 C 14,5 km/h (3 Bft) 100 %
06.02.2014 12:50 8,2 C 8,2 C 8,3 C 71 % 1009,1 hPa 0,0 l/m 8,0 km/h (2 Bft) S-SW 202 0 min 0,000 mm 107 W/m 3,3 C 7,0 C 16,1 km/h (3 Bft) 100 %
06.02.2014 13:00 8,1 C 8,1 C 8,2 C 72 % 1009,0 hPa 0,0 l/m 1,6 km/h (1 Bft) S-SW 202 0 min 0,102 mm 107 W/m 3,4 C 8,1 C 8,0 km/h (2 Bft) 100 %
06.02.2014 13:10 8,2 C 8,1 C 8,2 C 72 % 1009,0 hPa 0,0 l/m 3,2 km/h (1 Bft) SW 225 10 min 0,000 mm 172 W/m 3,5 C 8,2 C 11,3 km/h (2 Bft) 100 %
06.02.2014 13:20 8,4 C 8,2 C 8,4 C 71 % 1008,9 hPa 0,0 l/m 3,2 km/h (1 Bft) S 180 10 min 0,000 mm 461 W/m 3,5 C 8,4 C 9,7 km/h (2 Bft) 100 %
06.02.2014 13:30 9,0 C 8,4 C 9,0 C 66 % 1008,5 hPa 0,0 l/m 1,6 km/h (1 Bft) S-SW 202 10 min 0,000 mm 385 W/m 3,0 C 9,0 C 11,3 km/h (2 Bft) 99 %
06.02.2014 13:40 9,5 C 9,0 C 9,5 C 64 % 1008,5 hPa 0,0 l/m 6,4 km/h (2 Bft) S-SW 202 10 min 0,000 mm 374 W/m 3,0 C 9,5 C 16,1 km/h (3 Bft) 100 %
06.02.2014 13:50 9,4 C 9,4 C 9,6 C 61 % 1008,4 hPa 0,0 l/m 6,4 km/h (2 Bft) S-SO 157 10 min 0,000 mm 367 W/m 2,3 C 9,4 C 17,7 km/h (3 Bft) 100 %
06.02.2014 14:00 9,7 C 9,4 C 9,7 C 63 % 1008,3 hPa 0,0 l/m 3,2 km/h (1 Bft) S-SW 202 10 min 0,127 mm 396 W/m 3,0 C 9,7 C 11,3 km/h (2 Bft) 100 %
06.02.2014 14:10 10,2 C 9,8 C 10,2 C 61 % 1008,3 hPa 0,0 l/m 4,8 km/h (1 Bft) SW 225 10 min 0,000 mm 390 W/m 3,0 C 10,2 C 14,5 km/h (3 Bft) 100 %
06.02.2014 14:20 9,9 C 9,9 C 10,3 C 60 % 1008,1 hPa 0,0 l/m 3,2 km/h (1 Bft) S-SW 202 10 min 0,000 mm 355 W/m 2,5 C 9,9 C 11,3 km/h (2 Bft) 100 %
06.02.2014 14:30 9,6 C 9,6 C 9,9 C 61 % 1007,9 hPa 0,0 l/m 1,6 km/h (1 Bft) S-SW 202 10 min 0,000 mm 248 W/m 2,5 C 9,6 C 8,0 km/h (2 Bft) 100 %
06.02.2014 14:40 9,8 C 9,6 C 9,8 C 62 % 1007,8 hPa 0,0 l/m 3,2 km/h (1 Bft) S-SW 202 10 min 0,000 mm 229 W/m 2,9 C 9,8 C 9,7 km/h (2 Bft) 99 %
06.02.2014 14:50 9,7 C 9,6 C 9,8 C 62 % 1007,5 hPa 0,0 l/m 0,0 km/h (0 Bft) S 181 10 min 0,000 mm 172 W/m 2,8 C 9,7 C 1,6 km/h (1 Bft) 96 %
06.02.2014 15:00 9,7 C 9,6 C 9,7 C 60 % 1007,3 hPa 0,0 l/m 3,2 km/h (1 Bft) SO 145 10 min 0,127 mm 316 W/m 2,3 C 9,7 C 9,7 km/h (2 Bft) 97 %
06.02.2014 15:10 10,2 C 9,7 C 10,2 C 61 % 1007,1 hPa 0,0 l/m 2,6 km/h (1 Bft) S-SW 196 10 min 0,000 mm 297 W/m 3,0 C 10,2 C 9,7 km/h (2 Bft) 97 %
06.02.2014 15:20 10,5 C 10,2 C 10,5 C 60 % 1007,0 hPa 0,0 l/m 4,8 km/h (1 Bft) O-SO 118 10 min 0,000 mm 287 W/m 3,1 C 10,5 C 14,5 km/h (3 Bft) 97 %
06.02.2014 15:30 10,4 C 10,4 C 10,5 C 60 % 1006,8 hPa 0,0 l/m 8,5 km/h (2 Bft) S-SO 167 10 min 0,000 mm 255 W/m 3,0 C 8,9 C 20,9 km/h (4 Bft) 98 %
06.02.2014 15:40 10,4 C 10,3 C 10,4 C 60 % 1006,6 hPa 0,0 l/m 7,3 km/h (2 Bft) SO 141 10 min 0,000 mm 202 W/m 3,0 C 9,8 C 16,1 km/h (3 Bft) 97 %
06.02.2014 15:50 10,6 C 10,4 C 10,6 C 60 % 1006,5 hPa 0,0 l/m 5,0 km/h (1 Bft) S-SO 167 0 min 0,000 mm 148 W/m 3,2 C 10,6 C 11,3 km/h (2 Bft) 98 %
06.02.2014 16:00 10,3 C 10,3 C 10,6 C 60 % 1006,5 hPa 0,0 l/m 7,1 km/h (2 Bft) S-SO 168 0 min 0,127 mm 120 W/m 2,9 C 9,8 C 16,1 km/h (3 Bft) 97 %
06.02.2014 16:10 10,1 C 10,1 C 10,3 C 61 % 1006,5 hPa 0,0 l/m 9,4 km/h (2 Bft) S 188 0 min 0,000 mm 28 W/m 2,9 C 8,1 C 19,3 km/h (3 Bft) 98 %
06.02.2014 16:20 9,8 C 9,8 C 10,1 C 62 % 1006,6 hPa 0,0 l/m 8,3 km/h (2 Bft) S-SO 167 0 min 0,000 mm 21 W/m 2,9 C 8,4 C 16,1 km/h (3 Bft) 100 %
06.02.2014 16:30 9,4 C 9,4 C 9,8 C 64 % 1006,5 hPa 0,0 l/m 7,4 km/h (2 Bft) SO 134 0 min 0,000 mm 19 W/m 2,9 C 8,7 C 17,7 km/h (3 Bft) 99 %
06.02.2014 16:40 9,1 C 9,1 C 9,4 C 64 % 1006,2 hPa 0,0 l/m 4,8 km/h (1 Bft) SO 131 0 min 0,000 mm 19 W/m 2,7 C 9,1 C 11,3 km/h (2 Bft) 100 %
06.02.2014 16:50 8,9 C 8,9 C 9,1 C 64 % 1006,2 hPa 0,0 l/m 1,6 km/h (1 Bft) O 100 0 min 0,000 mm 19 W/m 2,5 C 8,9 C 6,4 km/h (2 Bft) 100 %
06.02.2014 17:00 8,8 C 8,7 C 8,9 C 64 % 1006,1 hPa 0,0 l/m 3,3 km/h (1 Bft) SO 132 0 min 0,051 mm 16 W/m 2,4 C 8,8 C 9,7 km/h (2 Bft) 100 %
06.02.2014 17:10 8,7 C 8,7 C 8,8 C 64 % 1005,9 hPa 0,0 l/m 3,2 km/h (1 Bft) O-SO 112 0 min 0,000 mm 11 W/m 2,3 C 8,7 C 9,7 km/h (2 Bft) 100 %
06.02.2014 17:20 8,7 C 8,7 C 8,8 C 64 % 1005,9 hPa 0,0 l/m 2,4 km/h (1 Bft) S-SO 149 0 min 0,000 mm 0 W/m 2,3 C 8,7 C 8,0 km/h (2 Bft) 91 %
06.02.2014 17:30 8,7 C 8,7 C 8,7 C 63 % 1005,7 hPa 0,0 l/m 4,0 km/h (1 Bft) SO 129 0 min 0,000 mm 0 W/m 2,1 C 8,7 C 11,3 km/h (2 Bft) 100 %
06.02.2014 17:40 8,7 C 8,7 C 8,7 C 63 % 1005,4 hPa 0,0 l/m 3,5 km/h (1 Bft) O 101 0 min 0,000 mm 0 W/m 2,1 C 8,7 C 11,3 km/h (2 Bft) 100 %
06.02.2014 17:50 8,8 C 8,7 C 8,8 C 62 % 1005,2 hPa 0,0 l/m 5,8 km/h (2 Bft) S-SO 148 0 min 0,000 mm 0 W/m 1,9 C 8,8 C 16,1 km/h (3 Bft) 100 %
06.02.2014 18:00 8,8 C 8,8 C 8,8 C 62 % 1005,1 hPa 0,0 l/m 5,7 km/h (1 Bft) SO 134 0 min 0,025 mm 0 W/m 1,9 C 8,8 C 14,5 km/h (3 Bft) 99 %
06.02.2014 18:10 8,8 C 8,8 C 8,8 C 61 % 1004,9 hPa 0,0 l/m 5,8 km/h (2 Bft) S-SO 150 0 min 0,000 mm 0 W/m 1,7 C 8,8 C 14,5 km/h (3 Bft) 100 %
06.02.2014 18:20 8,8 C 8,8 C 8,8 C 62 % 1004,6 hPa 0,0 l/m 5,7 km/h (1 Bft) O-SO 117 0 min 0,000 mm 0 W/m 1,9 C 8,8 C 16,1 km/h (3 Bft) 100 %
06.02.2014 18:30 8,7 C 8,7 C 8,8 C 62 % 1004,3 hPa 0,0 l/m 6,7 km/h (2 Bft) O-SO 119 0 min 0,000 mm 0 W/m 1,8 C 8,5 C 12,9 km/h (3 Bft) 99 %
06.02.2014 18:40 8,7 C 8,7 C 8,7 C 62 % 1004,1 hPa 0,0 l/m 7,5 km/h (2 Bft) O-SO 120 0 min 0,000 mm 0 W/m 1,8 C 7,9 C 16,1 km/h (3 Bft) 100 %
06.02.2014 18:50 8,6 C 8,6 C 8,7 C 63 % 1003,9 hPa 0,0 l/m 5,5 km/h (1 Bft) O-SO 111 0 min 0,000 mm 0 W/m 2,0 C 8,6 C 14,5 km/h (3 Bft) 100 %
06.02.2014 19:00 8,5 C 8,5 C 8,6 C 63 % 1003,7 hPa 0,0 l/m 5,8 km/h (2 Bft) SO 134 0 min 0,051 mm 0 W/m 1,9 C 8,5 C 12,9 km/h (3 Bft) 100 %
06.02.2014 19:10 8,4 C 8,4 C 8,6 C 63 % 1003,6 hPa 0,0 l/m 5,6 km/h (1 Bft) S-SO 148 0 min 0,000 mm 0 W/m 1,8 C 8,4 C 14,5 km/h (3 Bft) 100 %
06.02.2014 19:20 8,4 C 8,4 C 8,4 C 63 % 1003,3 hPa 0,0 l/m 5,9 km/h (2 Bft) SO 130 0 min 0,000 mm 0 W/m 1,8 C 8,4 C 14,5 km/h (3 Bft) 100 %
06.02.2014 19:30 8,4 C 8,4 C 8,4 C 62 % 1003,2 hPa 0,0 l/m 7,2 km/h (2 Bft) SO 132 0 min 0,000 mm 0 W/m 1,6 C 7,8 C 19,3 km/h (3 Bft) 99 %
06.02.2014 19:40 8,4 C 8,4 C 8,4 C 62 % 1003,1 hPa 0,0 l/m 7,1 km/h (2 Bft) O-SO 115 0 min 0,000 mm 0 W/m 1,6 C 7,9 C 20,9 km/h (4 Bft) 100 %
06.02.2014 19:50 8,4 C 8,4 C 8,4 C 62 % 1003,0 hPa 0,0 l/m 8,0 km/h (2 Bft) SO 142 0 min 0,000 mm 0 W/m 1,6 C 7,2 C 17,7 km/h (3 Bft) 100 %
06.02.2014 20:00 8,4 C 8,4 C 8,4 C 61 % 1002,8 hPa 0,0 l/m 5,7 km/h (1 Bft) SO 126 0 min 0,051 mm 0 W/m 1,3 C 8,4 C 12,9 km/h (3 Bft) 100 %
06.02.2014 20:10 8,4 C 8,3 C 8,4 C 61 % 1002,7 hPa 0,0 l/m 4,8 km/h (1 Bft) SO 132 0 min 0,000 mm 0 W/m 1,3 C 8,4 C 11,3 km/h (2 Bft) 100 %
06.02.2014 20:20 8,3 C 8,3 C 8,4 C 60 % 1002,5 hPa 0,0 l/m 3,1 km/h (1 Bft) S-SO 161 0 min 0,000 mm 0 W/m 1,0 C 8,3 C 11,3 km/h (2 Bft) 99 %
06.02.2014 20:30 8,3 C 8,3 C 8,3 C 61 % 1002,4 hPa 0,0 l/m 4,7 km/h (1 Bft) SO 134 0 min 0,000 mm 0 W/m 1,2 C 8,3 C 14,5 km/h (3 Bft) 100 %
06.02.2014 20:40 8,3 C 8,3 C 8,3 C 59 % 1002,4 hPa 0,0 l/m 3,1 km/h (1 Bft) SO 134 0 min 0,000 mm 0 W/m 0,8 C 8,3 C 16,1 km/h (3 Bft) 100 %
06.02.2014 20:50 8,3 C 8,3 C 8,4 C 59 % 1002,3 hPa 0,0 l/m 3,3 km/h (1 Bft) SO 142 0 min 0,000 mm 0 W/m 0,8 C 8,3 C 9,7 km/h (2 Bft) 100 %
06.02.2014 21:00 8,3 C 8,3 C 8,3 C 59 % 1002,1 hPa 0,0 l/m 1,5 km/h (1 Bft) SO 146 0 min 0,025 mm 0 W/m 0,8 C 8,3 C 8,0 km/h (2 Bft) 100 %
06.02.2014 21:10 8,2 C 8,2 C 8,3 C 64 % 1002,0 hPa 0,0 l/m 1,6 km/h (1 Bft) SO 135 0 min 0,000 mm 0 W/m 1,8 C 8,2 C 6,4 km/h (2 Bft) 98 %
06.02.2014 21:20 8,2 C 8,1 C 8,2 C 58 % 1001,8 hPa 0,0 l/m 1,6 km/h (1 Bft) SO 135 0 min 0,000 mm 0 W/m 0,4 C 8,2 C 9,7 km/h (2 Bft) 98 %
06.02.2014 21:30 8,3 C 8,2 C 8,4 C 56 % 1001,8 hPa 0,0 l/m 1,6 km/h (1 Bft) SO 135 0 min 0,000 mm 0 W/m 0,0 C 8,3 C 8,0 km/h (2 Bft) 97 %
06.02.2014 21:40 8,6 C 8,3 C 8,6 C 56 % 1001,5 hPa 0,0 l/m 3,2 km/h (1 Bft) SO 135 0 min 0,000 mm 0 W/m 0,3 C 8,6 C 8,0 km/h (2 Bft) 98 %
06.02.2014 21:50 8,6 C 8,5 C 8,6 C 55 % 1001,4 hPa 0,0 l/m 3,2 km/h (1 Bft) O-SO 112 0 min 0,000 mm 0 W/m 0,1 C 8,6 C 9,7 km/h (2 Bft) 97 %
06.02.2014 22:00 8,6 C 8,6 C 8,6 C 55 % 1001,3 hPa 0,0 l/m 3,2 km/h (1 Bft) O-SO 112 0 min 0,025 mm 0 W/m 0,1 C 8,6 C 9,7 km/h (2 Bft) 97 %
06.02.2014 22:10 8,6 C 8,5 C 8,6 C 54 % 1001,1 hPa 0,0 l/m 3,2 km/h (1 Bft) SO 135 0 min 0,000 mm 0 W/m -0,2 C 8,6 C 8,0 km/h (2 Bft) 97 %
06.02.2014 22:20 8,6 C 8,6 C 8,6 C 55 % 1001,0 hPa 0,0 l/m 1,6 km/h (1 Bft) SO 135 0 min 0,000 mm 0 W/m 0,1 C 8,6 C 6,4 km/h (2 Bft) 98 %
06.02.2014 22:30 8,4 C 8,4 C 8,6 C 57 % 1000,9 hPa 0,0 l/m 0,0 km/h (0 Bft) SO 135 0 min 0,000 mm 0 W/m 0,4 C 8,4 C 6,4 km/h (2 Bft) 97 %
06.02.2014 22:40 8,1 C 8,1 C 8,4 C 59 % 1000,8 hPa 0,0 l/m 0,0 km/h (0 Bft) O-SO 112 0 min 0,000 mm 0 W/m 0,6 C 8,1 C 4,8 km/h (1 Bft) 97 %
06.02.2014 22:50 7,7 C 7,7 C 8,1 C 64 % 1000,8 hPa 0,0 l/m 0,0 km/h (0 Bft) S-SO 157 0 min 0,000 mm 0 W/m 1,3 C 7,7 C 3,2 km/h (1 Bft) 98 %
06.02.2014 23:00 7,2 C 7,2 C 7,7 C 66 % 1000,7 hPa 0,0 l/m 0,0 km/h (0 Bft) W-NW 292 0 min 0,025 mm 0 W/m 1,3 C 7,2 C 3,2 km/h (1 Bft) 97 %
06.02.2014 23:10 6,8 C 6,8 C 7,2 C 66 % 1000,6 hPa 0,0 l/m 0,0 km/h (0 Bft) W-NW 292 0 min 0,000 mm 0 W/m 0,9 C 6,8 C 1,6 km/h (1 Bft) 98 %
06.02.2014 23:20 6,6 C 6,6 C 6,8 C 67 % 1000,5 hPa 0,0 l/m 0,0 km/h (0 Bft) W-NW 292 0 min 0,000 mm 0 W/m 0,9 C 6,6 C 1,6 km/h (1 Bft) 99 %
06.02.2014 23:30 6,4 C 6,4 C 6,6 C 67 % 1000,3 hPa 0,0 l/m 0,0 km/h (0 Bft) N 0 0 min 0,000 mm 0 W/m 0,7 C 6,4 C 0,0 km/h (0 Bft) 99 %
06.02.2014 23:40 6,3 C 6,3 C 6,4 C 68 % 1000,2 hPa 0,0 l/m 0,0 km/h (0 Bft) W-NW 292 0 min 0,000 mm 0 W/m 0,8 C 6,3 C 1,6 km/h (1 Bft) 100 %
06.02.2014 23:50 6,2 C 6,2 C 6,3 C 68 % 999,8 hPa 0,0 l/m 0,0 km/h (0 Bft) N 0 0 min 0,000 mm 0 W/m 0,7 C 6,2 C 0,0 km/h (0 Bft) 89 %
_ Min-Zeit 00:00 00:00 00:00 22:10 23:50 - 07:50 - - - - - 22:10 01:00 23:30 23:50
Minimum _ 1,8 C 1,7 C 1,8 C 54 % 999,8 hPa - 0,0 km/h (0 Bft) - - - - - -0,2 C -0,6 C 0,0 km/h (0 Bft) 89 %
_ Max-Zeit 15:50 15:30 15:50 00:00 10:00 07:10 12:10 - - 10:10 12:00 11:40 10:40 15:50 12:10 04:50
Maximum _ 10,6 C 10,4 C 10,6 C 89 % 1010,2 hPa 0,4 l/m 12,9 km/h
S-SW (3 Bft)
- - 10 min 0,152 mm 508 W/m 4,6 C 10,6 C 25,7 km/h
S (4 Bft)
100 %
Durchschnitt _ 6,2 C 6,1 C 6,3 C 75 % 1006,7 hPa #1,4 l/m 4,9 km/h (1 Bft) S - #5:20 h #1,015 mm 214 W/m 1,9 C 5,8 C 12,2 km/h (2 Bft) 99 %
PRIVATE WETTERSTATION BILLIGHEIM-ALLFELD - www.neckar-odenwald-wetter.de - Holger Sonntag